sensor_id;sensor_type;location;lat;lon;timestamp;P1;durP1;ratioP1;P2;durP2;ratioP2
10651;SDS011;5374;42.742;23.266;2023-06-24T00:00:36;13.17;;;11.77;;
10651;SDS011;5374;42.742;23.266;2023-06-24T00:03:24;13.27;;;12.17;;
10651;SDS011;5374;42.742;23.266;2023-06-24T00:06:13;13.20;;;11.90;;
10651;SDS011;5374;42.742;23.266;2023-06-24T00:09:03;12.27;;;10.90;;
10651;SDS011;5374;42.742;23.266;2023-06-24T00:11:50;12.60;;;11.30;;
10651;SDS011;5374;42.742;23.266;2023-06-24T00:14:38;13.53;;;12.17;;
10651;SDS011;5374;42.742;23.266;2023-06-24T00:17:25;13.00;;;11.80;;
10651;SDS011;5374;42.742;23.266;2023-06-24T00:20:13;13.40;;;12.03;;
10651;SDS011;5374;42.742;23.266;2023-06-24T00:23:05;14.90;;;13.50;;
10651;SDS011;5374;42.742;23.266;2023-06-24T00:25:53;18.40;;;13.57;;
10651;SDS011;5374;42.742;23.266;2023-06-24T00:28:40;14.80;;;13.37;;
10651;SDS011;5374;42.742;23.266;2023-06-24T00:31:27;14.00;;;12.80;;
10651;SDS011;5374;42.742;23.266;2023-06-24T00:34:15;14.47;;;12.97;;
10651;SDS011;5374;42.742;23.266;2023-06-24T00:37:05;17.93;;;13.00;;
10651;SDS011;5374;42.742;23.266;2023-06-24T00:39:54;14.93;;;13.43;;
10651;SDS011;5374;42.742;23.266;2023-06-24T00:42:41;15.30;;;13.73;;
10651;SDS011;5374;42.742;23.266;2023-06-24T00:45:30;16.43;;;14.23;;
10651;SDS011;5374;42.742;23.266;2023-06-24T00:48:17;15.23;;;13.80;;
10651;SDS011;5374;42.742;23.266;2023-06-24T00:51:05;15.23;;;13.30;;
10651;SDS011;5374;42.742;23.266;2023-06-24T00:53:52;15.03;;;13.53;;
10651;SDS011;5374;42.742;23.266;2023-06-24T00:56:41;15.90;;;14.33;;
10651;SDS011;5374;42.742;23.266;2023-06-24T00:59:29;15.53;;;14.03;;
10651;SDS011;5374;42.742;23.266;2023-06-24T01:02:16;16.60;;;14.90;;
10651;SDS011;5374;42.742;23.266;2023-06-24T01:05:04;16.37;;;14.77;;
10651;SDS011;5374;42.742;23.266;2023-06-24T01:07:53;18.00;;;15.17;;
10651;SDS011;5374;42.742;23.266;2023-06-24T01:10:42;16.83;;;14.97;;
10651;SDS011;5374;42.742;23.266;2023-06-24T01:13:30;19.73;;;14.93;;
10651;SDS011;5374;42.742;23.266;2023-06-24T01:16:20;16.80;;;15.13;;
10651;SDS011;5374;42.742;23.266;2023-06-24T01:19:19;16.20;;;14.17;;
10651;SDS011;5374;42.742;23.266;2023-06-24T01:22:25;17.53;;;14.60;;
10651;SDS011;5374;42.742;23.266;2023-06-24T01:25:32;17.17;;;14.27;;
10651;SDS011;5374;42.742;23.266;2023-06-24T01:28:34;16.77;;;15.00;;
10651;SDS011;5374;42.742;23.266;2023-06-24T01:31:44;19.87;;;15.43;;
10651;SDS011;5374;42.742;23.266;2023-06-24T01:34:35;19.67;;;17.13;;
10651;SDS011;5374;42.742;23.266;2023-06-24T01:37:29;16.90;;;15.13;;
10651;SDS011;5374;42.742;23.266;2023-06-24T01:40:26;17.30;;;15.50;;
10651;SDS011;5374;42.742;23.266;2023-06-24T01:43:14;17.60;;;15.80;;
10651;SDS011;5374;42.742;23.266;2023-06-24T01:46:04;17.10;;;15.33;;
10651;SDS011;5374;42.742;23.266;2023-06-24T01:48:55;17.97;;;16.07;;
10651;SDS011;5374;42.742;23.266;2023-06-24T01:51:47;19.20;;;15.83;;
10651;SDS011;5374;42.742;23.266;2023-06-24T01:54:36;18.37;;;15.83;;
10651;SDS011;5374;42.742;23.266;2023-06-24T01:57:26;18.00;;;16.20;;
10651;SDS011;5374;42.742;23.266;2023-06-24T02:00:16;16.97;;;15.27;;
10651;SDS011;5374;42.742;23.266;2023-06-24T02:03:05;18.53;;;15.90;;
10651;SDS011;5374;42.742;23.266;2023-06-24T02:05:55;16.97;;;15.20;;
10651;SDS011;5374;42.742;23.266;2023-06-24T02:08:43;17.10;;;15.27;;
10651;SDS011;5374;42.742;23.266;2023-06-24T02:11:34;17.23;;;15.43;;
10651;SDS011;5374;42.742;23.266;2023-06-24T02:14:23;20.43;;;16.63;;
10651;SDS011;5374;42.742;23.266;2023-06-24T02:17:13;20.37;;;16.03;;
10651;SDS011;5374;42.742;23.266;2023-06-24T02:20:01;20.70;;;17.43;;
10651;SDS011;5374;42.742;23.266;2023-06-24T02:22:52;19.77;;;17.67;;
10651;SDS011;5374;42.742;23.266;2023-06-24T02:25:40;18.33;;;16.63;;
10651;SDS011;5374;42.742;23.266;2023-06-24T02:28:30;21.00;;;16.47;;
10651;SDS011;5374;42.742;23.266;2023-06-24T02:31:17;20.43;;;17.07;;
10651;SDS011;5374;42.742;23.266;2023-06-24T02:34:05;19.37;;;16.67;;
10651;SDS011;5374;42.742;23.266;2023-06-24T02:36:52;18.63;;;16.60;;
10651;SDS011;5374;42.742;23.266;2023-06-24T02:39:40;18.80;;;16.80;;
10651;SDS011;5374;42.742;23.266;2023-06-24T02:42:29;18.43;;;16.63;;
10651;SDS011;5374;42.742;23.266;2023-06-24T02:45:16;19.10;;;16.50;;
10651;SDS011;5374;42.742;23.266;2023-06-24T02:48:04;18.07;;;16.27;;
10651;SDS011;5374;42.742;23.266;2023-06-24T02:50:53;17.80;;;15.90;;
10651;SDS011;5374;42.742;23.266;2023-06-24T02:53:40;20.63;;;16.27;;
10651;SDS011;5374;42.742;23.266;2023-06-24T02:56:30;18.90;;;16.90;;
10651;SDS011;5374;42.742;23.266;2023-06-24T02:59:18;19.17;;;17.13;;
10651;SDS011;5374;42.742;23.266;2023-06-24T03:02:07;19.63;;;17.27;;
10651;SDS011;5374;42.742;23.266;2023-06-24T03:04:55;18.33;;;16.43;;
10651;SDS011;5374;42.742;23.266;2023-06-24T03:07:43;18.97;;;16.70;;
10651;SDS011;5374;42.742;23.266;2023-06-24T03:10:31;19.23;;;16.87;;
10651;SDS011;5374;42.742;23.266;2023-06-24T03:13:20;19.10;;;17.20;;
10651;SDS011;5374;42.742;23.266;2023-06-24T03:16:07;17.73;;;16.03;;
10651;SDS011;5374;42.742;23.266;2023-06-24T03:18:57;19.53;;;16.60;;
10651;SDS011;5374;42.742;23.266;2023-06-24T03:21:44;18.13;;;16.17;;
10651;SDS011;5374;42.742;23.266;2023-06-24T03:24:31;19.63;;;17.13;;
10651;SDS011;5374;42.742;23.266;2023-06-24T03:27:18;19.00;;;16.77;;
10651;SDS011;5374;42.742;23.266;2023-06-24T03:30:08;19.53;;;17.47;;
10651;SDS011;5374;42.742;23.266;2023-06-24T03:32:57;18.17;;;16.27;;
10651;SDS011;5374;42.742;23.266;2023-06-24T03:35:44;18.63;;;16.17;;
10651;SDS011;5374;42.742;23.266;2023-06-24T03:38:31;19.47;;;16.77;;
10651;SDS011;5374;42.742;23.266;2023-06-24T03:41:19;18.80;;;16.77;;
10651;SDS011;5374;42.742;23.266;2023-06-24T03:44:06;18.10;;;16.20;;
10651;SDS011;5374;42.742;23.266;2023-06-24T03:46:54;20.33;;;15.27;;
10651;SDS011;5374;42.742;23.266;2023-06-24T03:49:41;16.90;;;15.20;;
10651;SDS011;5374;42.742;23.266;2023-06-24T03:52:28;16.57;;;14.97;;
10651;SDS011;5374;42.742;23.266;2023-06-24T03:55:16;18.80;;;15.40;;
10651;SDS011;5374;42.742;23.266;2023-06-24T03:58:03;17.47;;;14.07;;
10651;SDS011;5374;42.742;23.266;2023-06-24T04:00:50;16.03;;;14.07;;
10651;SDS011;5374;42.742;23.266;2023-06-24T04:03:38;17.50;;;14.77;;
10651;SDS011;5374;42.742;23.266;2023-06-24T04:06:25;16.90;;;15.03;;
10651;SDS011;5374;42.742;23.266;2023-06-24T04:09:12;15.87;;;14.20;;
10651;SDS011;5374;42.742;23.266;2023-06-24T04:12:00;20.80;;;14.17;;
10651;SDS011;5374;42.742;23.266;2023-06-24T04:14:47;15.93;;;14.33;;
10651;SDS011;5374;42.742;23.266;2023-06-24T04:17:34;15.60;;;13.80;;
10651;SDS011;5374;42.742;23.266;2023-06-24T04:20:23;14.47;;;13.07;;
10651;SDS011;5374;42.742;23.266;2023-06-24T04:23:10;14.63;;;13.20;;
10651;SDS011;5374;42.742;23.266;2023-06-24T04:25:59;15.23;;;13.63;;
10651;SDS011;5374;42.742;23.266;2023-06-24T04:28:46;15.23;;;13.67;;
10651;SDS011;5374;42.742;23.266;2023-06-24T04:31:34;14.20;;;12.80;;
10651;SDS011;5374;42.742;23.266;2023-06-24T04:34:21;15.17;;;13.70;;
10651;SDS011;5374;42.742;23.266;2023-06-24T04:37:09;16.37;;;14.40;;
10651;SDS011;5374;42.742;23.266;2023-06-24T04:39:56;15.27;;;13.77;;
10651;SDS011;5374;42.742;23.266;2023-06-24T04:42:44;18.13;;;14.10;;
10651;SDS011;5374;42.742;23.266;2023-06-24T04:45:31;15.50;;;14.00;;
10651;SDS011;5374;42.742;23.266;2023-06-24T04:48:23;16.77;;;14.87;;
10651;SDS011;5374;42.742;23.266;2023-06-24T04:51:10;15.87;;;14.33;;
10651;SDS011;5374;42.742;23.266;2023-06-24T04:53:59;15.33;;;13.87;;
10651;SDS011;5374;42.742;23.266;2023-06-24T04:56:46;15.40;;;13.90;;
10651;SDS011;5374;42.742;23.266;2023-06-24T04:59:35;16.33;;;13.57;;
10651;SDS011;5374;42.742;23.266;2023-06-24T05:02:23;15.03;;;13.63;;
10651;SDS011;5374;42.742;23.266;2023-06-24T05:05:11;15.57;;;13.97;;
10651;SDS011;5374;42.742;23.266;2023-06-24T05:07:58;16.27;;;13.87;;
10651;SDS011;5374;42.742;23.266;2023-06-24T05:10:47;15.00;;;13.60;;
10651;SDS011;5374;42.742;23.266;2023-06-24T05:13:34;16.47;;;14.77;;
10651;SDS011;5374;42.742;23.266;2023-06-24T05:16:21;15.47;;;13.70;;
10651;SDS011;5374;42.742;23.266;2023-06-24T05:19:09;15.30;;;13.70;;
10651;SDS011;5374;42.742;23.266;2023-06-24T05:21:56;14.77;;;13.33;;
10651;SDS011;5374;42.742;23.266;2023-06-24T05:24:44;14.47;;;12.97;;
10651;SDS011;5374;42.742;23.266;2023-06-24T05:27:32;14.60;;;13.30;;
10651;SDS011;5374;42.742;23.266;2023-06-24T05:30:19;16.60;;;12.97;;
10651;SDS011;5374;42.742;23.266;2023-06-24T05:33:06;17.23;;;13.70;;
10651;SDS011;5374;42.742;23.266;2023-06-24T05:35:54;14.63;;;13.07;;
10651;SDS011;5374;42.742;23.266;2023-06-24T05:38:41;15.23;;;13.37;;
10651;SDS011;5374;42.742;23.266;2023-06-24T05:41:29;15.87;;;13.20;;
10651;SDS011;5374;42.742;23.266;2023-06-24T05:44:17;13.47;;;12.07;;
10651;SDS011;5374;42.742;23.266;2023-06-24T05:47:05;14.23;;;12.73;;
10651;SDS011;5374;42.742;23.266;2023-06-24T05:49:52;13.93;;;12.43;;
10651;SDS011;5374;42.742;23.266;2023-06-24T05:52:42;15.17;;;13.23;;
10651;SDS011;5374;42.742;23.266;2023-06-24T05:55:29;16.93;;;13.50;;
10651;SDS011;5374;42.742;23.266;2023-06-24T05:58:16;14.67;;;13.20;;
10651;SDS011;5374;42.742;23.266;2023-06-24T06:01:04;16.10;;;12.83;;
10651;SDS011;5374;42.742;23.266;2023-06-24T06:03:51;13.87;;;12.63;;
10651;SDS011;5374;42.742;23.266;2023-06-24T06:06:39;15.33;;;11.90;;
10651;SDS011;5374;42.742;23.266;2023-06-24T06:09:26;17.13;;;13.10;;
10651;SDS011;5374;42.742;23.266;2023-06-24T06:12:16;20.57;;;13.37;;
10651;SDS011;5374;42.742;23.266;2023-06-24T06:15:04;14.17;;;12.80;;
10651;SDS011;5374;42.742;23.266;2023-06-24T06:17:53;13.63;;;12.23;;
10651;SDS011;5374;42.742;23.266;2023-06-24T06:20:41;15.07;;;12.97;;
10651;SDS011;5374;42.742;23.266;2023-06-24T06:23:28;17.37;;;12.93;;
10651;SDS011;5374;42.742;23.266;2023-06-24T06:26:15;14.83;;;13.23;;
10651;SDS011;5374;42.742;23.266;2023-06-24T06:29:03;16.80;;;12.73;;
10651;SDS011;5374;42.742;23.266;2023-06-24T06:31:50;14.60;;;12.00;;
10651;SDS011;5374;42.742;23.266;2023-06-24T06:34:44;15.57;;;11.93;;
10651;SDS011;5374;42.742;23.266;2023-06-24T06:37:31;14.52;;;12.27;;
10651;SDS011;5374;42.742;23.266;2023-06-24T06:40:18;16.57;;;12.70;;
10651;SDS011;5374;42.742;23.266;2023-06-24T06:43:05;13.10;;;11.75;;
10651;SDS011;5374;42.742;23.266;2023-06-24T06:45:53;13.20;;;11.98;;
10651;SDS011;5374;42.742;23.266;2023-06-24T06:48:44;12.65;;;11.50;;
10651;SDS011;5374;42.742;23.266;2023-06-24T06:51:33;12.00;;;11.00;;
10651;SDS011;5374;42.742;23.266;2023-06-24T06:54:22;13.00;;;11.70;;
10651;SDS011;5374;42.742;23.266;2023-06-24T06:57:09;13.00;;;11.60;;
10651;SDS011;5374;42.742;23.266;2023-06-24T06:59:56;12.55;;;11.23;;
10651;SDS011;5374;42.742;23.266;2023-06-24T07:02:43;12.40;;;11.20;;
10651;SDS011;5374;42.742;23.266;2023-06-24T07:05:30;12.43;;;11.30;;
10651;SDS011;5374;42.742;23.266;2023-06-24T07:08:19;13.03;;;10.83;;
10651;SDS011;5374;42.742;23.266;2023-06-24T07:11:06;12.13;;;10.90;;
10651;SDS011;5374;42.742;23.266;2023-06-24T07:13:53;16.30;;;10.55;;
10651;SDS011;5374;42.742;23.266;2023-06-24T07:16:40;11.77;;;10.57;;
10651;SDS011;5374;42.742;23.266;2023-06-24T07:19:27;12.13;;;11.02;;
10651;SDS011;5374;42.742;23.266;2023-06-24T07:22:15;14.30;;;10.82;;
10651;SDS011;5374;42.742;23.266;2023-06-24T07:25:03;13.02;;;10.52;;
10651;SDS011;5374;42.742;23.266;2023-06-24T07:27:51;14.95;;;11.45;;
10651;SDS011;5374;42.742;23.266;2023-06-24T07:30:38;14.02;;;10.23;;
10651;SDS011;5374;42.742;23.266;2023-06-24T07:33:25;14.00;;;10.98;;
10651;SDS011;5374;42.742;23.266;2023-06-24T07:36:12;13.50;;;10.40;;
10651;SDS011;5374;42.742;23.266;2023-06-24T07:39:00;12.07;;;10.65;;
10651;SDS011;5374;42.742;23.266;2023-06-24T07:41:48;12.88;;;11.43;;
10651;SDS011;5374;42.742;23.266;2023-06-24T07:44:35;15.50;;;11.40;;
10651;SDS011;5374;42.742;23.266;2023-06-24T07:47:25;13.20;;;11.80;;
10651;SDS011;5374;42.742;23.266;2023-06-24T07:50:12;12.25;;;10.63;;
10651;SDS011;5374;42.742;23.266;2023-06-24T07:52:59;19.83;;;10.73;;
10651;SDS011;5374;42.742;23.266;2023-06-24T07:55:47;12.05;;;11.05;;
10651;SDS011;5374;42.742;23.266;2023-06-24T07:58:36;11.48;;;10.30;;
10651;SDS011;5374;42.742;23.266;2023-06-24T08:01:23;11.38;;;10.35;;
10651;SDS011;5374;42.742;23.266;2023-06-24T08:04:11;21.08;;;10.77;;
10651;SDS011;5374;42.742;23.266;2023-06-24T08:06:58;17.70;;;11.77;;
10651;SDS011;5374;42.742;23.266;2023-06-24T08:09:45;11.38;;;10.15;;
10651;SDS011;5374;42.742;23.266;2023-06-24T08:12:32;12.40;;;11.30;;
10651;SDS011;5374;42.742;23.266;2023-06-24T08:15:21;11.70;;;10.60;;
10651;SDS011;5374;42.742;23.266;2023-06-24T08:18:08;13.37;;;11.43;;
10651;SDS011;5374;42.742;23.266;2023-06-24T08:20:56;11.90;;;10.80;;
10651;SDS011;5374;42.742;23.266;2023-06-24T08:23:46;15.60;;;11.60;;
10651;SDS011;5374;42.742;23.266;2023-06-24T08:26:36;11.03;;;9.90;;
10651;SDS011;5374;42.742;23.266;2023-06-24T08:29:23;12.43;;;10.80;;
10651;SDS011;5374;42.742;23.266;2023-06-24T08:32:12;17.50;;;11.35;;
10651;SDS011;5374;42.742;23.266;2023-06-24T08:34:59;11.32;;;10.23;;
10651;SDS011;5374;42.742;23.266;2023-06-24T08:37:46;12.25;;;10.75;;
10651;SDS011;5374;42.742;23.266;2023-06-24T08:40:34;15.00;;;11.32;;
10651;SDS011;5374;42.742;23.266;2023-06-24T08:43:21;12.95;;;11.23;;
10651;SDS011;5374;42.742;23.266;2023-06-24T08:46:08;13.43;;;11.00;;
10651;SDS011;5374;42.742;23.266;2023-06-24T08:48:59;13.02;;;10.90;;
10651;SDS011;5374;42.742;23.266;2023-06-24T08:51:54;14.13;;;10.93;;
10651;SDS011;5374;42.742;23.266;2023-06-24T08:54:45;12.23;;;11.07;;
10651;SDS011;5374;42.742;23.266;2023-06-24T08:57:35;12.43;;;11.17;;
10651;SDS011;5374;42.742;23.266;2023-06-24T09:00:23;12.38;;;11.15;;
10651;SDS011;5374;42.742;23.266;2023-06-24T09:03:10;12.60;;;11.30;;
10651;SDS011;5374;42.742;23.266;2023-06-24T09:05:59;12.48;;;11.07;;
10651;SDS011;5374;42.742;23.266;2023-06-24T09:08:52;11.48;;;10.57;;
10651;SDS011;5374;42.742;23.266;2023-06-24T09:11:40;13.93;;;11.20;;
10651;SDS011;5374;42.742;23.266;2023-06-24T09:14:28;13.65;;;10.88;;
10651;SDS011;5374;42.742;23.266;2023-06-24T09:17:17;11.90;;;10.88;;
10651;SDS011;5374;42.742;23.266;2023-06-24T09:20:07;11.55;;;10.45;;
10651;SDS011;5374;42.742;23.266;2023-06-24T09:23:01;23.27;;;10.82;;
10651;SDS011;5374;42.742;23.266;2023-06-24T09:25:55;11.55;;;10.48;;
10651;SDS011;5374;42.742;23.266;2023-06-24T09:28:46;18.75;;;10.98;;
10651;SDS011;5374;42.742;23.266;2023-06-24T09:31:34;32.70;;;11.50;;
10651;SDS011;5374;42.742;23.266;2023-06-24T09:34:21;11.63;;;10.40;;
10651;SDS011;5374;42.742;23.266;2023-06-24T09:37:09;11.43;;;10.23;;
10651;SDS011;5374;42.742;23.266;2023-06-24T09:39:58;11.63;;;10.40;;
10651;SDS011;5374;42.742;23.266;2023-06-24T09:42:50;12.97;;;10.80;;
10651;SDS011;5374;42.742;23.266;2023-06-24T09:45:38;15.40;;;10.90;;
10651;SDS011;5374;42.742;23.266;2023-06-24T09:48:25;12.93;;;10.90;;
10651;SDS011;5374;42.742;23.266;2023-06-24T09:51:17;11.98;;;10.80;;
10651;SDS011;5374;42.742;23.266;2023-06-24T09:54:05;16.08;;;11.35;;
10651;SDS011;5374;42.742;23.266;2023-06-24T09:56:54;11.43;;;10.35;;
10651;SDS011;5374;42.742;23.266;2023-06-24T09:59:46;12.07;;;10.88;;
10651;SDS011;5374;42.742;23.266;2023-06-24T10:02:34;13.10;;;11.10;;
10651;SDS011;5374;42.742;23.266;2023-06-24T10:05:22;12.18;;;10.98;;
10651;SDS011;5374;42.742;23.266;2023-06-24T10:08:09;13.25;;;11.10;;
10651;SDS011;5374;42.742;23.266;2023-06-24T10:10:58;12.07;;;10.82;;
10651;SDS011;5374;42.742;23.266;2023-06-24T10:13:47;11.30;;;9.83;;
10651;SDS011;5374;42.742;23.266;2023-06-24T10:16:34;11.70;;;10.60;;
10651;SDS011;5374;42.742;23.266;2023-06-24T10:19:23;12.07;;;10.07;;
10651;SDS011;5374;42.742;23.266;2023-06-24T10:22:10;11.00;;;10.00;;
10651;SDS011;5374;42.742;23.266;2023-06-24T10:24:59;11.27;;;10.27;;
10651;SDS011;5374;42.742;23.266;2023-06-24T10:27:49;12.03;;;9.67;;
10651;SDS011;5374;42.742;23.266;2023-06-24T10:30:41;13.80;;;10.63;;
10651;SDS011;5374;42.742;23.266;2023-06-24T10:33:41;11.03;;;9.77;;
10651;SDS011;5374;42.742;23.266;2023-06-24T10:36:31;11.37;;;10.33;;
10651;SDS011;5374;42.742;23.266;2023-06-24T10:42:31;12.53;;;10.20;;
10651;SDS011;5374;42.742;23.266;2023-06-24T10:45:20;12.77;;;10.80;;
10651;SDS011;5374;42.742;23.266;2023-06-24T10:48:11;11.07;;;9.97;;
10651;SDS011;5374;42.742;23.266;2023-06-24T10:50:58;11.70;;;9.57;;
10651;SDS011;5374;42.742;23.266;2023-06-24T10:53:45;11.27;;;9.83;;
10651;SDS011;5374;42.742;23.266;2023-06-24T10:56:32;11.90;;;10.70;;
10651;SDS011;5374;42.742;23.266;2023-06-24T10:59:20;13.83;;;10.07;;
10651;SDS011;5374;42.742;23.266;2023-06-24T11:02:07;13.47;;;9.93;;
10651;SDS011;5374;42.742;23.266;2023-06-24T11:04:57;11.70;;;10.47;;
10651;SDS011;5374;42.742;23.266;2023-06-24T11:07:45;14.23;;;10.23;;
10651;SDS011;5374;42.742;23.266;2023-06-24T11:10:32;11.60;;;8.83;;
10651;SDS011;5374;42.742;23.266;2023-06-24T11:13:20;10.07;;;9.17;;
10651;SDS011;5374;42.742;23.266;2023-06-24T11:16:07;9.40;;;8.50;;
10651;SDS011;5374;42.742;23.266;2023-06-24T11:18:54;10.17;;;8.50;;
10651;SDS011;5374;42.742;23.266;2023-06-24T11:21:43;9.60;;;8.70;;
10651;SDS011;5374;42.742;23.266;2023-06-24T11:24:30;9.87;;;8.97;;
10651;SDS011;5374;42.742;23.266;2023-06-24T11:27:23;9.40;;;8.60;;
10651;SDS011;5374;42.742;23.266;2023-06-24T11:30:12;9.63;;;7.73;;
10651;SDS011;5374;42.742;23.266;2023-06-24T11:33:00;9.70;;;8.80;;
10651;SDS011;5374;42.742;23.266;2023-06-24T11:35:48;16.50;;;8.53;;
10651;SDS011;5374;42.742;23.266;2023-06-24T11:38:37;8.93;;;7.45;;
10651;SDS011;5374;42.742;23.266;2023-06-24T11:41:24;22.42;;;9.02;;
10651;SDS011;5374;42.742;23.266;2023-06-24T11:44:15;19.80;;;8.70;;
10651;SDS011;5374;42.742;23.266;2023-06-24T11:47:06;9.27;;;7.97;;
10651;SDS011;5374;42.742;23.266;2023-06-24T11:49:55;9.87;;;7.90;;
10651;SDS011;5374;42.742;23.266;2023-06-24T11:52:43;12.40;;;7.73;;
10651;SDS011;5374;42.742;23.266;2023-06-24T11:55:35;20.20;;;9.13;;
10651;SDS011;5374;42.742;23.266;2023-06-24T11:58:22;15.50;;;7.40;;
10651;SDS011;5374;42.742;23.266;2023-06-24T12:01:11;9.13;;;7.30;;
10651;SDS011;5374;42.742;23.266;2023-06-24T12:04:09;13.30;;;7.73;;
10651;SDS011;5374;42.742;23.266;2023-06-24T12:06:59;11.70;;;7.67;;
10651;SDS011;5374;42.742;23.266;2023-06-24T12:09:52;8.57;;;7.33;;
10651;SDS011;5374;42.742;23.266;2023-06-24T12:12:42;11.17;;;7.80;;
10651;SDS011;5374;42.742;23.266;2023-06-24T12:15:29;9.03;;;7.30;;
10651;SDS011;5374;42.742;23.266;2023-06-24T12:18:17;9.50;;;7.43;;
10651;SDS011;5374;42.742;23.266;2023-06-24T12:21:04;9.43;;;6.77;;
10651;SDS011;5374;42.742;23.266;2023-06-24T12:23:52;9.53;;;7.13;;
10651;SDS011;5374;42.742;23.266;2023-06-24T12:26:41;9.63;;;7.40;;
10651;SDS011;5374;42.742;23.266;2023-06-24T12:29:31;8.07;;;7.27;;
10651;SDS011;5374;42.742;23.266;2023-06-24T12:32:19;9.80;;;7.70;;
10651;SDS011;5374;42.742;23.266;2023-06-24T12:35:07;8.03;;;7.17;;
10651;SDS011;5374;42.742;23.266;2023-06-24T12:37:56;11.43;;;7.67;;
10651;SDS011;5374;42.742;23.266;2023-06-24T12:40:43;12.57;;;7.93;;
10651;SDS011;5374;42.742;23.266;2023-06-24T12:43:32;10.67;;;7.67;;
10651;SDS011;5374;42.742;23.266;2023-06-24T12:46:21;8.20;;;7.40;;
10651;SDS011;5374;42.742;23.266;2023-06-24T12:49:13;7.90;;;7.10;;
10651;SDS011;5374;42.742;23.266;2023-06-24T12:52:00;7.40;;;6.80;;
10651;SDS011;5374;42.742;23.266;2023-06-24T12:54:53;9.93;;;6.97;;
10651;SDS011;5374;42.742;23.266;2023-06-24T12:57:42;9.07;;;6.97;;
10651;SDS011;5374;42.742;23.266;2023-06-24T13:00:30;8.77;;;7.10;;
10651;SDS011;5374;42.742;23.266;2023-06-24T13:03:21;7.90;;;7.03;;
10651;SDS011;5374;42.742;23.266;2023-06-24T13:06:09;13.00;;;7.73;;
10651;SDS011;5374;42.742;23.266;2023-06-24T13:08:56;14.10;;;9.10;;
10651;SDS011;5374;42.742;23.266;2023-06-24T13:11:43;12.40;;;9.67;;
10651;SDS011;5374;42.742;23.266;2023-06-24T13:14:31;14.70;;;10.33;;
10651;SDS011;5374;42.742;23.266;2023-06-24T13:17:20;17.50;;;10.77;;
10651;SDS011;5374;42.742;23.266;2023-06-24T13:20:09;15.63;;;8.77;;
10651;SDS011;5374;42.742;23.266;2023-06-24T13:22:57;19.33;;;9.30;;
10651;SDS011;5374;42.742;23.266;2023-06-24T13:25:44;23.03;;;11.43;;
10651;SDS011;5374;42.742;23.266;2023-06-24T13:28:32;10.27;;;8.37;;
10651;SDS011;5374;42.742;23.266;2023-06-24T13:31:19;42.37;;;8.50;;
10651;SDS011;5374;42.742;23.266;2023-06-24T13:34:07;15.57;;;5.93;;
10651;SDS011;5374;42.742;23.266;2023-06-24T13:36:56;14.73;;;6.60;;
10651;SDS011;5374;42.742;23.266;2023-06-24T13:39:43;16.90;;;6.70;;
10651;SDS011;5374;42.742;23.266;2023-06-24T13:42:31;26.00;;;7.60;;
10651;SDS011;5374;42.742;23.266;2023-06-24T13:45:20;15.87;;;7.97;;
10651;SDS011;5374;42.742;23.266;2023-06-24T13:48:09;18.23;;;8.50;;
10651;SDS011;5374;42.742;23.266;2023-06-24T13:50:58;10.93;;;7.27;;
10651;SDS011;5374;42.742;23.266;2023-06-24T13:53:46;12.03;;;6.97;;
10651;SDS011;5374;42.742;23.266;2023-06-24T13:56:36;15.30;;;7.93;;
10651;SDS011;5374;42.742;23.266;2023-06-24T13:59:23;11.33;;;6.80;;
10651;SDS011;5374;42.742;23.266;2023-06-24T14:02:20;14.70;;;6.20;;
10651;SDS011;5374;42.742;23.266;2023-06-24T14:05:12;10.93;;;6.30;;
10651;SDS011;5374;42.742;23.266;2023-06-24T14:08:00;14.27;;;7.00;;
10651;SDS011;5374;42.742;23.266;2023-06-24T14:10:58;14.73;;;6.33;;
10651;SDS011;5374;42.742;23.266;2023-06-24T14:13:47;16.30;;;6.50;;
10651;SDS011;5374;42.742;23.266;2023-06-24T14:16:38;13.20;;;6.00;;
10651;SDS011;5374;42.742;23.266;2023-06-24T14:19:25;15.47;;;5.40;;
10651;SDS011;5374;42.742;23.266;2023-06-24T14:22:16;15.73;;;6.07;;
10651;SDS011;5374;42.742;23.266;2023-06-24T14:25:10;15.80;;;5.37;;
10651;SDS011;5374;42.742;23.266;2023-06-24T14:27:59;14.57;;;5.70;;
10651;SDS011;5374;42.742;23.266;2023-06-24T14:30:47;13.30;;;5.87;;
10651;SDS011;5374;42.742;23.266;2023-06-24T14:33:36;11.27;;;5.63;;
10651;SDS011;5374;42.742;23.266;2023-06-24T14:36:25;12.10;;;6.73;;
10651;SDS011;5374;42.742;23.266;2023-06-24T14:39:13;11.90;;;6.40;;
10651;SDS011;5374;42.742;23.266;2023-06-24T14:42:05;9.87;;;5.90;;
10651;SDS011;5374;42.742;23.266;2023-06-24T14:44:58;11.20;;;5.93;;
10651;SDS011;5374;42.742;23.266;2023-06-24T14:47:46;11.23;;;6.03;;
10651;SDS011;5374;42.742;23.266;2023-06-24T14:50:36;11.97;;;6.20;;
10651;SDS011;5374;42.742;23.266;2023-06-24T14:53:31;9.93;;;5.90;;
10651;SDS011;5374;42.742;23.266;2023-06-24T14:56:20;16.60;;;6.00;;
10651;SDS011;5374;42.742;23.266;2023-06-24T14:59:07;18.27;;;6.47;;
10651;SDS011;5374;42.742;23.266;2023-06-24T15:01:56;12.93;;;5.80;;
10651;SDS011;5374;42.742;23.266;2023-06-24T15:04:43;10.80;;;6.00;;
10651;SDS011;5374;42.742;23.266;2023-06-24T15:07:30;14.03;;;6.33;;
10651;SDS011;5374;42.742;23.266;2023-06-24T15:10:17;9.73;;;5.73;;
10651;SDS011;5374;42.742;23.266;2023-06-24T15:13:04;13.33;;;6.30;;
10651;SDS011;5374;42.742;23.266;2023-06-24T15:15:52;12.27;;;7.10;;
10651;SDS011;5374;42.742;23.266;2023-06-24T15:18:46;15.40;;;6.80;;
10651;SDS011;5374;42.742;23.266;2023-06-24T15:21:35;11.73;;;6.80;;
10651;SDS011;5374;42.742;23.266;2023-06-24T15:24:22;17.47;;;7.10;;
10651;SDS011;5374;42.742;23.266;2023-06-24T15:27:09;11.27;;;6.70;;
10651;SDS011;5374;42.742;23.266;2023-06-24T15:29:57;15.30;;;7.10;;
10651;SDS011;5374;42.742;23.266;2023-06-24T15:32:44;13.13;;;6.80;;
10651;SDS011;5374;42.742;23.266;2023-06-24T15:35:33;12.57;;;6.50;;
10651;SDS011;5374;42.742;23.266;2023-06-24T15:38:20;10.90;;;6.43;;
10651;SDS011;5374;42.742;23.266;2023-06-24T15:41:08;21.07;;;7.60;;
10651;SDS011;5374;42.742;23.266;2023-06-24T15:43:55;15.03;;;6.90;;
10651;SDS011;5374;42.742;23.266;2023-06-24T15:46:43;13.60;;;7.03;;
10651;SDS011;5374;42.742;23.266;2023-06-24T15:49:32;14.83;;;7.10;;
10651;SDS011;5374;42.742;23.266;2023-06-24T15:52:20;20.50;;;7.53;;
10651;SDS011;5374;42.742;23.266;2023-06-24T15:55:08;17.10;;;7.83;;
10651;SDS011;5374;42.742;23.266;2023-06-24T15:57:55;15.97;;;7.27;;
10651;SDS011;5374;42.742;23.266;2023-06-24T16:00:42;13.33;;;7.00;;
10651;SDS011;5374;42.742;23.266;2023-06-24T16:03:30;14.93;;;7.43;;
10651;SDS011;5374;42.742;23.266;2023-06-24T16:06:17;13.80;;;9.03;;
10651;SDS011;5374;42.742;23.266;2023-06-24T16:09:07;17.43;;;10.20;;
10651;SDS011;5374;42.742;23.266;2023-06-24T16:11:54;17.33;;;9.60;;
10651;SDS011;5374;42.742;23.266;2023-06-24T16:14:41;17.13;;;10.60;;
10651;SDS011;5374;42.742;23.266;2023-06-24T16:17:28;16.70;;;11.50;;
10651;SDS011;5374;42.742;23.266;2023-06-24T16:20:15;19.57;;;12.50;;
10651;SDS011;5374;42.742;23.266;2023-06-24T16:23:02;16.43;;;12.00;;
10651;SDS011;5374;42.742;23.266;2023-06-24T16:25:51;14.63;;;11.27;;
10651;SDS011;5374;42.742;23.266;2023-06-24T16:28:38;14.57;;;11.00;;
10651;SDS011;5374;42.742;23.266;2023-06-24T16:31:25;13.87;;;10.90;;
10651;SDS011;5374;42.742;23.266;2023-06-24T16:34:13;12.60;;;11.03;;